Time;durP1;ratioP1;P1;durP2;ratioP2;P2;SDS_P1;SDS_P2;PMS_P1;PMS_P2;Temp;Humidity;BMP_temperature;BMP_pressure;BME280_temperature;BME280_humidity;BME280_pressure;Samples;Min_cycle;Max_cycle;Signal;HPM_P1;HPM_P2
2021/01/03 00:00:23;;;;;;;0.30;0.30;;;;;;;;;;5098024;27;20681;-71
2021/01/03 00:02:51;;;;;;;0.20;0.20;;;;;;;;;;5102176;27;20227;-69
2021/01/03 00:05:20;;;;;;;0.10;0.10;;;;;;;;;;5103085;28;20186;-76
2021/01/03 00:07:47;;;;;;;0.10;0.10;;;;;;;;;;5104834;27;20201;-75
2021/01/03 00:10:14;;;;;;;1.53;0.93;;;;;;;;;;5104114;28;20193;-75
2021/01/03 00:12:41;;;;;;;0.43;0.30;;;;;;;;;;5103448;28;20654;-70
2021/01/03 00:15:10;;;;;;;1.30;0.53;;;;;;;;;;5107236;27;20181;-70
2021/01/03 00:17:36;;;;;;;2.20;0.47;;;;;;;;;;5096126;28;20205;-73
2021/01/03 00:20:04;;;;;;;1.70;1.60;;;;;;;;;;5103169;28;20188;-70
2021/01/03 00:22:31;;;;;;;0.10;0.10;;;;;;;;;;5103621;27;20256;-69
2021/01/03 00:24:57;;;;;;;0.30;0.30;;;;;;;;;;5101638;27;20185;-71
2021/01/03 00:27:24;;;;;;;1.13;1.07;;;;;;;;;;5101333;28;20355;-73
2021/01/03 00:29:50;;;;;;;1.40;0.37;;;;;;;;;;5100134;28;20192;-70
2021/01/03 00:32:18;;;;;;;0.00;0.00;;;;;;;;;;5102712;27;20209;-72
2021/01/03 00:34:44;;;;;;;0.10;0.10;;;;;;;;;;5107453;27;20634;-70
2021/01/03 00:37:11;;;;;;;0.10;0.10;;;;;;;;;;5103597;28;20225;-71
2021/01/03 00:39:38;;;;;;;3.13;0.57;;;;;;;;;;5101184;28;20185;-73
2021/01/03 00:42:04;;;;;;;0.20;0.20;;;;;;;;;;5103357;28;20185;-71
2021/01/03 00:44:31;;;;;;;0.23;0.23;;;;;;;;;;5099635;28;20192;-70
2021/01/03 00:46:58;;;;;;;0.10;0.10;;;;;;;;;;5101457;28;20185;-72
2021/01/03 00:49:26;;;;;;;0.10;0.10;;;;;;;;;;5103165;28;20216;-65
2021/01/03 00:51:53;;;;;;;0.10;0.10;;;;;;;;;;5099568;28;20213;-65
2021/01/03 00:54:19;;;;;;;0.10;0.10;;;;;;;;;;5098960;28;20195;-65
2021/01/03 00:56:46;;;;;;;3.53;1.27;;;;;;;;;;5100455;27;20243;-71
2021/01/03 00:59:12;;;;;;;0.20;0.20;;;;;;;;;;5101136;28;20180;-65
2021/01/03 01:01:39;;;;;;;0.10;0.10;;;;;;;;;;5101633;27;20180;-68
2021/01/03 01:04:07;;;;;;;0.73;0.73;;;;;;;;;;5098203;27;20182;-69
2021/01/03 01:06:34;;;;;;;0.73;0.73;;;;;;;;;;5102206;28;20199;-69
2021/01/03 01:09:02;;;;;;;0.37;0.37;;;;;;;;;;5108330;27;20181;-67
2021/01/03 01:11:29;;;;;;;0.10;0.10;;;;;;;;;;5102513;28;20188;-71
2021/01/03 01:13:56;;;;;;;0.57;0.57;;;;;;;;;;5095382;27;20326;-70
2021/01/03 01:16:24;;;;;;;7.17;0.93;;;;;;;;;;5105055;27;20282;-69
2021/01/03 01:18:50;;;;;;;0.10;0.10;;;;;;;;;;5096022;28;20197;-70
2021/01/03 01:21:17;;;;;;;0.20;0.20;;;;;;;;;;5096499;27;20716;-67
2021/01/03 01:23:44;;;;;;;0.20;0.20;;;;;;;;;;5102159;28;20943;-68
2021/01/03 01:26:10;;;;;;;6.40;1.17;;;;;;;;;;5097879;28;20204;-69
2021/01/03 01:28:37;;;;;;;0.73;0.73;;;;;;;;;;5095711;27;20191;-69
2021/01/03 01:31:04;;;;;;;8.50;1.23;;;;;;;;;;5097116;27;20181;-73
2021/01/03 01:33:31;;;;;;;0.57;0.57;;;;;;;;;;5097497;27;20830;-70
2021/01/03 01:35:58;;;;;;;0.20;0.20;;;;;;;;;;5094601;28;20189;-69
2021/01/03 01:38:24;;;;;;;23.70;1.27;;;;;;;;;;5096067;27;20186;-68
2021/01/03 01:40:51;;;;;;;0.10;0.10;;;;;;;;;;5102683;27;20191;-69
2021/01/03 01:43:19;;;;;;;4.23;0.20;;;;;;;;;;5093577;27;20247;-71
2021/01/03 01:45:47;;;;;;;0.10;0.10;;;;;;;;;;5098830;27;20288;-72
2021/01/03 01:48:21;;;;;;;8.47;1.23;;;;;;;;;;5093104;27;20279;-70
2021/01/03 01:50:53;;;;;;;5.10;0.53;;;;;;;;;;5099627;27;20189;-71
2021/01/03 01:53:23;;;;;;;0.10;0.10;;;;;;;;;;5100688;27;20322;-68
2021/01/03 01:55:54;;;;;;;1.90;1.03;;;;;;;;;;5095461;28;20176;-72
2021/01/03 01:58:33;;;;;;;0.10;0.10;;;;;;;;;;5088670;27;20976;-71
2021/01/03 14:03:58;;;;;;;1.37;0.67;;;;;;;;;;5058236;28;20581;-64
2021/01/03 14:06:28;;;;;;;0.43;0.30;;;;;;;;;;5038744;28;20623;-64
2021/01/03 14:08:55;;;;;;;0.00;0.00;;;;;;;;;;5039621;28;20949;-67
2021/01/03 14:11:23;;;;;;;0.20;0.20;;;;;;;;;;5039344;28;20188;-64
2021/01/03 14:13:49;;;;;;;0.73;0.33;;;;;;;;;;5038895;28;20188;-64
2021/01/03 14:16:20;;;;;;;0.10;0.10;;;;;;;;;;5038707;28;20823;-64
2021/01/03 14:18:48;;;;;;;4.73;1.93;;;;;;;;;;5043377;28;20183;-64
2021/01/03 14:21:15;;;;;;;0.67;0.23;;;;;;;;;;5039262;28;20191;-64
2021/01/03 14:23:42;;;;;;;0.00;0.00;;;;;;;;;;5039245;28;20481;-64
2021/01/03 14:26:10;;;;;;;0.10;0.10;;;;;;;;;;5039461;28;20272;-64
2021/01/03 14:28:36;;;;;;;0.00;0.00;;;;;;;;;;5037970;28;20180;-64
2021/01/03 14:31:03;;;;;;;0.00;0.00;;;;;;;;;;5038714;28;20381;-64
2021/01/03 14:33:30;;;;;;;0.00;0.00;;;;;;;;;;5039072;28;20331;-64
2021/01/03 14:36:02;;;;;;;0.10;0.10;;;;;;;;;;5039171;28;20657;-64
2021/01/03 14:38:30;;;;;;;1.00;0.97;;;;;;;;;;5039191;28;20216;-64
2021/01/03 14:40:59;;;;;;;0.00;0.00;;;;;;;;;;5038833;28;20194;-64
2021/01/03 14:43:26;;;;;;;2.03;1.83;;;;;;;;;;5038947;28;20222;-65
2021/01/03 14:46:05;;;;;;;2.73;0.50;;;;;;;;;;5038913;28;20184;-63
2021/01/03 14:48:52;;;;;;;7.10;0.87;;;;;;;;;;5037842;28;20816;-64
2021/01/03 14:51:22;;;;;;;1.13;0.33;;;;;;;;;;5033739;28;20577;-64
2021/01/03 14:53:54;;;;;;;2.83;2.37;;;;;;;;;;5040876;28;20230;-65
2021/01/03 14:56:29;;;;;;;4.63;1.97;;;;;;;;;;5036019;28;20642;-64
2021/01/03 14:59:14;;;;;;;3.20;0.60;;;;;;;;;;5038243;28;20548;-64
2021/01/03 15:01:42;;;;;;;0.00;0.00;;;;;;;;;;5031754;28;20643;-64
2021/01/03 15:04:24;;;;;;;0.00;0.00;;;;;;;;;;5031779;28;20196;-64
2021/01/03 15:07:06;;;;;;;0.93;0.33;;;;;;;;;;5037955;28;20195;-65
2021/01/03 15:09:34;;;;;;;1.97;0.37;;;;;;;;;;5038411;28;20210;-65
2021/01/03 15:12:05;;;;;;;0.53;0.33;;;;;;;;;;5037293;28;20192;-64
2021/01/03 15:14:31;;;;;;;5.23;0.43;;;;;;;;;;5029135;28;20218;-64
2021/01/03 15:17:16;;;;;;;0.00;0.00;;;;;;;;;;5025679;28;20562;-64
2021/01/03 15:19:58;;;;;;;0.47;0.23;;;;;;;;;;5018343;28;20369;-65
2021/01/03 15:22:29;;;;;;;0.00;0.00;;;;;;;;;;5024959;28;20208;-64
2021/01/03 15:24:56;;;;;;;1.10;1.10;;;;;;;;;;5023923;28;20279;-64
2021/01/03 15:27:22;;;;;;;0.20;0.20;;;;;;;;;;5025425;28;20176;-64
2021/01/03 15:29:50;;;;;;;1.17;0.47;;;;;;;;;;5024195;28;20649;-65
2021/01/03 15:32:18;;;;;;;0.27;0.20;;;;;;;;;;5024546;28;20199;-64
2021/01/03 15:34:51;;;;;;;8.43;0.73;;;;;;;;;;5024676;28;20191;-64
2021/01/03 15:37:34;;;;;;;0.93;0.53;;;;;;;;;;5024634;28;20184;-65
2021/01/03 15:40:01;;;;;;;5.60;1.37;;;;;;;;;;5024348;28;20258;-65
2021/01/03 15:42:29;;;;;;;4.37;0.90;;;;;;;;;;5024974;28;20243;-64
2021/01/03 15:45:01;;;;;;;1.03;0.27;;;;;;;;;;5023352;28;20188;-64
2021/01/03 15:47:29;;;;;;;0.10;0.10;;;;;;;;;;5024126;28;20591;-64
2021/01/03 15:49:56;;;;;;;3.67;2.73;;;;;;;;;;5024422;28;20186;-65
2021/01/03 15:52:26;;;;;;;0.00;0.00;;;;;;;;;;5028337;28;20203;-64
2021/01/03 15:54:52;;;;;;;0.00;0.00;;;;;;;;;;5017658;28;20185;-73
2021/01/03 15:57:21;;;;;;;0.10;0.10;;;;;;;;;;5028530;28;20180;-65
2021/01/03 15:59:49;;;;;;;0.10;0.10;;;;;;;;;;5024517;28;20184;-73
2021/01/03 16:02:15;;;;;;;0.60;0.37;;;;;;;;;;5016622;28;20481;-73
2021/01/03 16:04:45;;;;;;;0.00;0.00;;;;;;;;;;5017097;28;20313;-72
2021/01/03 16:07:12;;;;;;;2.20;0.10;;;;;;;;;;5018339;28;20263;-65
2021/01/03 16:09:39;;;;;;;0.17;0.10;;;;;;;;;;5024479;28;20184;-65
2021/01/03 16:12:06;;;;;;;0.47;0.47;;;;;;;;;;5026561;28;20196;-64
2021/01/03 16:14:33;;;;;;;0.00;0.00;;;;;;;;;;5025578;28;20187;-65
2021/01/03 16:16:59;;;;;;;0.00;0.00;;;;;;;;;;5016891;28;20188;-65
2021/01/03 16:19:29;;;;;;;0.00;0.00;;;;;;;;;;5017058;28;20192;-65
2021/01/03 16:22:08;;;;;;;0.10;0.10;;;;;;;;;;5017670;28;20286;-65
2021/01/03 16:24:34;;;;;;;0.00;0.00;;;;;;;;;;5018510;28;20192;-66
2021/01/03 16:27:05;;;;;;;0.47;0.47;;;;;;;;;;5022949;28;20195;-65
2021/01/03 16:29:44;;;;;;;1.20;0.43;;;;;;;;;;5023547;28;20730;-66
2021/01/03 16:32:11;;;;;;;0.93;0.63;;;;;;;;;;5023205;28;20246;-66
2021/01/03 16:34:55;;;;;;;1.03;0.70;;;;;;;;;;5024099;28;20652;-65
2021/01/03 16:37:45;;;;;;;1.53;1.43;;;;;;;;;;5022772;28;20640;-65
2021/01/03 16:40:22;;;;;;;0.83;0.83;;;;;;;;;;5020276;28;20200;-66
2021/01/03 16:42:49;;;;;;;0.47;0.20;;;;;;;;;;5022652;28;20852;-65
2021/01/03 16:45:31;;;;;;;1.10;0.63;;;;;;;;;;5022842;28;20184;-65
2021/01/03 16:48:11;;;;;;;2.10;0.63;;;;;;;;;;5022903;28;20181;-64
2021/01/03 16:50:53;;;;;;;3.30;0.30;;;;;;;;;;5024568;28;20271;-65
2021/01/03 16:53:43;;;;;;;0.10;0.00;;;;;;;;;;5022872;28;20865;-65
2021/01/03 16:56:28;;;;;;;0.40;0.40;;;;;;;;;;5019527;28;20274;-65
2021/01/03 16:59:04;;;;;;;0.67;0.33;;;;;;;;;;5022325;28;20207;-65
2021/01/03 17:01:34;;;;;;;1.17;0.67;;;;;;;;;;5023234;28;20301;-65
2021/01/03 17:04:05;;;;;;;1.40;0.33;;;;;;;;;;5022600;28;20197;-65
2021/01/03 17:06:32;;;;;;;0.10;0.10;;;;;;;;;;5022748;28;20184;-65
2021/01/03 17:09:07;;;;;;;1.80;0.30;;;;;;;;;;5024435;28;20669;-65
2021/01/03 17:11:42;;;;;;;1.20;0.20;;;;;;;;;;5021752;28;20211;-65
2021/01/03 17:14:22;;;;;;;0.00;0.00;;;;;;;;;;5022598;28;20202;-65
2021/01/03 17:17:08;;;;;;;0.03;0.00;;;;;;;;;;5021902;28;20292;-65
2021/01/03 17:19:43;;;;;;;0.83;0.13;;;;;;;;;;5023151;28;20679;-64
2021/01/03 17:22:12;;;;;;;0.10;0.10;;;;;;;;;;5022425;28;21025;-65
2021/01/03 17:24:45;;;;;;;0.00;0.00;;;;;;;;;;5021512;28;20267;-65
2021/01/03 17:27:30;;;;;;;1.00;0.33;;;;;;;;;;5023047;28;20199;-65
2021/01/03 17:29:56;;;;;;;1.00;0.67;;;;;;;;;;5022447;28;20192;-65
2021/01/03 17:32:38;;;;;;;5.67;2.27;;;;;;;;;;5021957;28;20210;-64
2021/01/03 17:35:08;;;;;;;1.40;1.30;;;;;;;;;;5022251;28;20635;-65
2021/01/03 17:37:41;;;;;;;3.17;0.63;;;;;;;;;;5022571;28;20367;-64
2021/01/03 17:40:16;;;;;;;0.03;0.00;;;;;;;;;;5021803;28;20199;-65
2021/01/03 17:42:45;;;;;;;0.93;0.40;;;;;;;;;;5022146;28;20239;-64
2021/01/03 17:45:24;;;;;;;8.50;1.17;;;;;;;;;;5022042;28;20191;-73
2021/01/03 17:47:56;;;;;;;0.00;0.00;;;;;;;;;;5022843;28;20812;-73
2021/01/03 17:50:24;;;;;;;0.50;0.40;;;;;;;;;;5023110;28;20230;-73
2021/01/03 17:52:53;;;;;;;0.40;0.40;;;;;;;;;;5017034;28;20291;-64
2021/01/03 17:55:19;;;;;;;1.30;0.33;;;;;;;;;;5021686;28;20710;-65
2021/01/03 17:57:48;;;;;;;0.73;0.37;;;;;;;;;;5021479;28;20193;-65
2021/01/03 18:00:16;;;;;;;7.30;0.27;;;;;;;;;;5017317;28;20184;-66
2021/01/03 18:02:43;;;;;;;0.60;0.20;;;;;;;;;;5015349;28;20235;-64
2021/01/03 18:05:10;;;;;;;14.43;1.10;;;;;;;;;;5007540;28;20613;-64
2021/01/03 18:07:37;;;;;;;0.10;0.10;;;;;;;;;;5012871;28;20180;-66
2021/01/03 18:10:04;;;;;;;0.97;0.43;;;;;;;;;;5017922;28;20534;-65
2021/01/03 18:12:30;;;;;;;7.37;6.60;;;;;;;;;;5019320;28;20274;-65
2021/01/03 18:14:57;;;;;;;0.60;0.20;;;;;;;;;;5018874;28;20696;-65
2021/01/03 18:17:24;;;;;;;2.33;1.70;;;;;;;;;;5017297;28;20208;-65
2021/01/03 18:19:50;;;;;;;0.50;0.40;;;;;;;;;;5018495;28;20199;-66
2021/01/03 18:22:20;;;;;;;0.00;0.00;;;;;;;;;;5015592;28;20301;-65
2021/01/03 18:24:50;;;;;;;0.00;0.00;;;;;;;;;;5021810;28;20254;-66
2021/01/03 18:27:17;;;;;;;5.20;0.43;;;;;;;;;;5019559;28;20220;-71
2021/01/03 18:29:43;;;;;;;0.87;0.27;;;;;;;;;;5018867;28;20190;-70
2021/01/03 18:32:10;;;;;;;0.33;0.33;;;;;;;;;;5019502;28;20192;-69
2021/01/03 18:34:37;;;;;;;0.10;0.03;;;;;;;;;;5018680;28;20188;-69
2021/01/03 18:37:05;;;;;;;0.00;0.00;;;;;;;;;;5016759;28;20273;-70
2021/01/03 18:39:32;;;;;;;0.83;0.37;;;;;;;;;;5017199;28;20192;-69
2021/01/03 18:42:00;;;;;;;0.20;0.13;;;;;;;;;;5015272;28;20243;-70
2021/01/03 18:44:27;;;;;;;0.23;0.23;;;;;;;;;;5019243;28;20184;-70
2021/01/03 18:46:54;;;;;;;0.20;0.20;;;;;;;;;;5018422;28;20327;-70
2021/01/03 18:49:21;;;;;;;0.73;0.40;;;;;;;;;;5019519;28;20188;-70
2021/01/03 18:51:48;;;;;;;0.10;0.10;;;;;;;;;;5020594;28;20207;-70
2021/01/03 18:54:15;;;;;;;0.63;0.63;;;;;;;;;;5022457;28;20267;-71
2021/01/03 18:56:43;;;;;;;1.50;0.17;;;;;;;;;;5022813;28;20250;-70
2021/01/03 18:59:10;;;;;;;2.53;0.63;;;;;;;;;;5024875;28;20192;-70
2021/01/03 19:01:38;;;;;;;0.97;0.23;;;;;;;;;;5023071;28;20633;-70
2021/01/03 19:04:05;;;;;;;1.53;0.60;;;;;;;;;;5021205;28;20220;-70
2021/01/03 19:06:33;;;;;;;0.63;0.60;;;;;;;;;;5021843;28;20267;-69
2021/01/03 19:09:00;;;;;;;0.00;0.00;;;;;;;;;;5020137;28;20372;-70
2021/01/03 19:11:27;;;;;;;8.20;1.50;;;;;;;;;;5021496;28;20181;-69
2021/01/03 19:13:54;;;;;;;0.00;0.00;;;;;;;;;;5023207;28;20206;-69
2021/01/03 19:16:43;;;;;;;0.00;0.00;;;;;;;;;;5026524;28;20637;-69
2021/01/03 19:19:12;;;;;;;0.00;0.00;;;;;;;;;;5022113;28;20192;-69
2021/01/03 19:21:38;;;;;;;0.20;0.20;;;;;;;;;;5022424;28;20223;-69
2021/01/03 19:24:05;;;;;;;1.80;0.57;;;;;;;;;;5020767;28;20223;-69
2021/01/03 19:26:32;;;;;;;1.80;0.93;;;;;;;;;;5020411;28;20319;-65
2021/01/03 19:28:58;;;;;;;15.70;1.07;;;;;;;;;;5021390;28;20393;-65
2021/01/03 19:31:27;;;;;;;0.00;0.00;;;;;;;;;;5022507;28;20188;-65
2021/01/03 19:33:54;;;;;;;0.00;0.00;;;;;;;;;;5021730;28;20193;-64
2021/01/03 19:36:23;;;;;;;5.00;0.40;;;;;;;;;;5128368;23;20525;-69
2021/01/03 19:38:50;;;;;;;0.07;0.07;;;;;;;;;;5001304;28;20181;-67
2021/01/03 19:41:21;;;;;;;0.10;0.10;;;;;;;;;;4999821;28;20196;-65
2021/01/03 19:43:47;;;;;;;0.30;0.13;;;;;;;;;;5004967;28;20225;-69
2021/01/03 19:46:18;;;;;;;0.13;0.10;;;;;;;;;;5000844;28;20185;-66
2021/01/03 19:48:45;;;;;;;0.23;0.23;;;;;;;;;;4998876;28;20264;-69
2021/01/03 19:51:11;;;;;;;1.50;0.83;;;;;;;;;;4999145;28;20251;-66
2021/01/03 19:53:38;;;;;;;0.00;0.00;;;;;;;;;;4979862;28;20301;-65
2021/01/03 19:56:05;;;;;;;1.03;0.40;;;;;;;;;;4965668;28;20225;-67
2021/01/03 19:58:31;;;;;;;0.70;0.40;;;;;;;;;;4961131;28;20214;-68
2021/01/03 20:00:58;;;;;;;0.93;0.20;;;;;;;;;;4960689;28;20543;-67
2021/01/03 20:03:24;;;;;;;0.00;0.00;;;;;;;;;;4960823;28;20224;-66
2021/01/03 20:05:52;;;;;;;0.30;0.20;;;;;;;;;;4960474;28;20210;-70
2021/01/03 20:08:20;;;;;;;0.10;0.10;;;;;;;;;;4960542;28;20194;-67
2021/01/03 20:10:47;;;;;;;2.47;0.43;;;;;;;;;;4960689;28;20210;-66
2021/01/03 20:13:14;;;;;;;0.10;0.10;;;;;;;;;;4963309;28;20608;-67
2021/01/03 20:15:40;;;;;;;3.30;1.70;;;;;;;;;;4962281;28;20190;-67
2021/01/03 20:18:07;;;;;;;0.00;0.00;;;;;;;;;;4962417;28;20269;-67
2021/01/03 20:20:36;;;;;;;0.00;0.00;;;;;;;;;;4961225;28;20180;-68
2021/01/03 20:23:07;;;;;;;0.00;0.00;;;;;;;;;;4960001;28;20234;-67
2021/01/03 20:25:33;;;;;;;0.03;0.03;;;;;;;;;;4962595;28;20186;-67
2021/01/03 20:28:00;;;;;;;7.80;0.57;;;;;;;;;;4961102;28;20191;-67
2021/01/03 20:30:27;;;;;;;0.00;0.00;;;;;;;;;;4960177;28;20178;-66
2021/01/03 20:32:53;;;;;;;0.83;0.40;;;;;;;;;;4960419;28;20190;-68
2021/01/03 20:35:21;;;;;;;0.60;0.30;;;;;;;;;;4962337;28;22265;-73
2021/01/03 20:37:48;;;;;;;2.00;0.57;;;;;;;;;;4958197;28;20265;-69
2021/01/03 20:40:15;;;;;;;0.10;0.10;;;;;;;;;;4960661;28;20183;-69
2021/01/03 20:42:41;;;;;;;0.20;0.20;;;;;;;;;;4958835;28;20217;-70
2021/01/03 20:45:08;;;;;;;0.90;0.40;;;;;;;;;;4962443;28;20294;-67
2021/01/03 20:47:35;;;;;;;2.03;0.23;;;;;;;;;;4960673;28;20186;-71
2021/01/03 20:50:02;;;;;;;2.30;0.00;;;;;;;;;;4960470;28;20186;-67
2021/01/03 20:52:30;;;;;;;2.00;0.30;;;;;;;;;;4960695;28;20233;-69
2021/01/03 20:54:56;;;;;;;0.30;0.10;;;;;;;;;;4960687;28;20664;-68
2021/01/03 20:57:23;;;;;;;0.00;0.00;;;;;;;;;;4960449;28;20264;-67
2021/01/03 20:59:50;;;;;;;0.00;0.00;;;;;;;;;;4959013;28;20187;-68
2021/01/03 21:02:16;;;;;;;0.00;0.00;;;;;;;;;;4957252;28;20207;-67
2021/01/03 21:04:43;;;;;;;0.00;0.00;;;;;;;;;;4958675;28;20201;-67
2021/01/03 21:07:12;;;;;;;0.10;0.00;;;;;;;;;;4959548;28;20322;-65
2021/01/03 21:09:41;;;;;;;0.00;0.00;;;;;;;;;;4958987;28;20178;-69
2021/01/03 21:12:14;;;;;;;3.73;1.70;;;;;;;;;;4960487;28;20795;-67
2021/01/03 21:14:41;;;;;;;0.00;0.00;;;;;;;;;;4953331;28;20611;-67
2021/01/03 21:17:08;;;;;;;0.00;0.00;;;;;;;;;;4959757;28;20719;-65
2021/01/03 21:19:35;;;;;;;0.00;0.00;;;;;;;;;;4960423;28;20737;-68
2021/01/03 21:22:06;;;;;;;5.60;1.03;;;;;;;;;;4959487;28;20269;-67
2021/01/03 21:24:33;;;;;;;0.00;0.00;;;;;;;;;;4962416;28;20260;-67
2021/01/03 21:27:06;;;;;;;37.47;3.00;;;;;;;;;;4961979;28;20198;-68
2021/01/03 21:29:50;;;;;;;0.10;0.10;;;;;;;;;;4960157;28;20277;-67
2021/01/03 21:32:17;;;;;;;0.00;0.00;;;;;;;;;;4960633;28;20183;-67
2021/01/03 21:35:06;;;;;;;0.10;0.10;;;;;;;;;;4956985;28;20290;-68
2021/01/03 21:37:55;;;;;;;0.00;0.00;;;;;;;;;;4957616;28;20229;-69
2021/01/03 21:40:36;;;;;;;0.53;0.30;;;;;;;;;;4961064;28;20198;-67
2021/01/03 21:43:06;;;;;;;3.20;1.30;;;;;;;;;;4957147;28;20292;-70
2021/01/03 21:45:43;;;;;;;1.03;0.63;;;;;;;;;;4959742;28;20428;-68
2021/01/03 21:48:14;;;;;;;0.23;0.03;;;;;;;;;;4959155;28;20188;-69
2021/01/03 21:51:01;;;;;;;2.13;1.90;;;;;;;;;;4955493;28;20198;-70
2021/01/03 21:53:53;;;;;;;1.40;0.83;;;;;;;;;;4958484;28;20629;-69
2021/01/03 21:56:45;;;;;;;0.00;0.00;;;;;;;;;;4960062;28;20198;-70
2021/01/03 21:59:18;;;;;;;0.00;0.00;;;;;;;;;;4957210;28;20253;-69
2021/01/03 22:02:04;;;;;;;0.57;0.37;;;;;;;;;;4959043;28;20653;-68
2021/01/03 22:04:50;;;;;;;0.20;0.10;;;;;;;;;;4961933;28;20206;-71
2021/01/03 22:07:35;;;;;;;0.10;0.10;;;;;;;;;;4958582;28;20178;-66
2021/01/03 22:10:02;;;;;;;0.00;0.00;;;;;;;;;;4955683;28;20214;-66
2021/01/03 22:12:47;;;;;;;0.03;0.03;;;;;;;;;;4959086;28;20191;-68
2021/01/03 22:15:14;;;;;;;4.23;0.87;;;;;;;;;;4957254;28;20673;-68
2021/01/03 22:17:41;;;;;;;1.27;1.27;;;;;;;;;;4984598;28;20248;-70
2021/01/03 22:20:07;;;;;;;0.27;0.10;;;;;;;;;;4959459;28;20193;-68
2021/01/03 22:22:37;;;;;;;0.00;0.00;;;;;;;;;;4958901;28;20229;-69
2021/01/03 22:25:13;;;;;;;1.13;0.73;;;;;;;;;;4963342;28;20294;-71
2021/01/03 22:27:57;;;;;;;0.77;0.13;;;;;;;;;;4964733;28;20188;-68
2021/01/03 22:30:23;;;;;;;0.07;0.07;;;;;;;;;;4963765;28;20178;-67
2021/01/03 22:32:56;;;;;;;0.00;0.00;;;;;;;;;;4964091;28;20197;-69
2021/01/03 22:35:26;;;;;;;0.00;0.00;;;;;;;;;;4965268;28;20187;-68
2021/01/03 22:38:11;;;;;;;0.00;0.00;;;;;;;;;;4964204;28;20549;-69
2021/01/03 22:40:47;;;;;;;1.90;0.87;;;;;;;;;;4964960;28;20540;-67
2021/01/03 22:43:26;;;;;;;0.10;0.10;;;;;;;;;;4964509;28;20256;-68
2021/01/03 22:45:53;;;;;;;0.57;0.10;;;;;;;;;;4965406;28;20190;-67
2021/01/03 22:48:25;;;;;;;0.00;0.00;;;;;;;;;;4964606;28;20186;-69
2021/01/03 22:50:58;;;;;;;0.60;0.53;;;;;;;;;;4964766;28;20210;-67
2021/01/03 22:53:51;;;;;;;5.00;1.03;;;;;;;;;;4965369;28;20250;-68
2021/01/03 22:56:30;;;;;;;5.33;4.83;;;;;;;;;;4964831;28;20261;-66
2021/01/03 22:59:12;;;;;;;0.00;0.00;;;;;;;;;;4964960;28;20707;-67
2021/01/03 23:01:54;;;;;;;0.57;0.53;;;;;;;;;;4965229;28;20196;-69
2021/01/03 23:04:21;;;;;;;0.30;0.30;;;;;;;;;;4962340;28;20799;-70
2021/01/03 23:06:48;;;;;;;0.23;0.23;;;;;;;;;;4964155;28;20256;-66
2021/01/03 23:09:15;;;;;;;0.13;0.13;;;;;;;;;;4964925;28;20190;-68
2021/01/03 23:11:49;;;;;;;0.00;0.00;;;;;;;;;;4964899;28;20193;-68
2021/01/03 23:14:17;;;;;;;0.10;0.10;;;;;;;;;;4964326;28;20190;-71
2021/01/03 23:16:58;;;;;;;0.77;0.73;;;;;;;;;;4963963;28;20186;-68
2021/01/03 23:19:37;;;;;;;0.37;0.30;;;;;;;;;;4961411;28;20182;-68
2021/01/03 23:22:09;;;;;;;0.00;0.00;;;;;;;;;;4963639;28;20709;-68
2021/01/03 23:24:38;;;;;;;0.10;0.10;;;;;;;;;;4962962;28;20271;-67
2021/01/03 23:27:20;;;;;;;5.27;0.83;;;;;;;;;;4962195;28;20228;-68
2021/01/03 23:29:48;;;;;;;0.00;0.00;;;;;;;;;;4960638;28;20680;-69
2021/01/03 23:32:15;;;;;;;1.90;0.40;;;;;;;;;;4958767;28;20201;-69
2021/01/03 23:34:43;;;;;;;0.70;0.20;;;;;;;;;;4963289;28;20192;-69
2021/01/03 23:37:10;;;;;;;0.20;0.20;;;;;;;;;;4964722;28;20244;-67
2021/01/03 23:39:40;;;;;;;0.30;0.30;;;;;;;;;;4963925;28;20521;-67
2021/01/03 23:42:13;;;;;;;0.00;0.00;;;;;;;;;;4955436;28;20208;-69
2021/01/03 23:44:48;;;;;;;0.00;0.00;;;;;;;;;;4962288;28;20174;-71
2021/01/03 23:47:33;;;;;;;0.10;0.10;;;;;;;;;;4963862;28;20182;-69
2021/01/03 23:50:11;;;;;;;0.07;0.07;;;;;;;;;;4963813;28;20177;-69
2021/01/03 23:52:56;;;;;;;1.00;0.30;;;;;;;;;;4963795;28;20188;-70
2021/01/03 23:55:41;;;;;;;2.23;1.33;;;;;;;;;;4961391;28;20177;-71
2021/01/03 23:58:15;;;;;;;9.17;0.50;;;;;;;;;;4960618;28;20182;-70
